Time;durP1;ratioP1;P1;durP2;ratioP2;P2;SDS_P1;SDS_P2;PMS_P1;PMS_P2;Temp;Humidity;BMP_temperature;BMP_pressure;BME280_temperature;BME280_humidity;BME280_pressure;Samples;Min_cycle;Max_cycle;Signal;HPM_P1;HPM_P2
2022/06/10 00:00:09;;;;;;;;;;;;;;;25.56;45.76;98250.91;2080206;28;19933;-50
2022/06/10 00:01:10;;;;;;;;;;;;;;;25.55;45.63;98252.81;2081498;28;19940;-51
2022/06/10 00:02:11;;;;;;;;;;;;;;;25.55;45.73;98262.88;2083097;28;19929;-50
2022/06/10 00:03:14;;;;;;;;;;;;;;;25.56;45.86;98259.06;2080824;28;20413;-48
2022/06/10 00:04:14;;;;;;;;;;;;;;;25.55;46.11;98257.44;2081233;28;19929;-50
2022/06/10 00:05:17;;;;;;;;;;;;;;;25.55;46.03;98252.81;2081620;28;19929;-48
2022/06/10 00:06:19;;;;;;;;;;;;;;;25.55;45.89;98257.44;2081226;28;19932;-48
2022/06/10 00:07:19;;;;;;;;;;;;;;;25.54;46.30;98253.06;2077114;28;19929;-48
2022/06/10 00:08:22;;;;;;;;;;;;;;;25.53;45.97;98257.69;2080058;28;20293;-48
2022/06/10 00:09:23;;;;;;;;;;;;;;;25.54;46.10;98247.63;2080088;28;19983;-49
2022/06/10 00:10:26;;;;;;;;;;;;;;;25.54;45.97;98251.16;2081159;28;19928;-48
2022/06/10 00:11:27;;;;;;;;;;;;;;;25.55;45.94;98255.53;2079386;28;19951;-49
2022/06/10 00:12:29;;;;;;;;;;;;;;;25.53;45.64;98249.53;2082087;28;19962;-49
2022/06/10 00:13:30;;;;;;;;;;;;;;;25.51;45.45;98254.41;2082904;28;19982;-49
2022/06/10 00:14:32;;;;;;;;;;;;;;;25.52;45.32;98253.34;2082222;28;19928;-50
2022/06/10 00:15:34;;;;;;;;;;;;;;;25.51;45.61;98246.25;2080641;28;19932;-53
2022/06/10 00:16:37;;;;;;;;;;;;;;;25.51;45.69;98251.69;2081157;28;19978;-49
2022/06/10 00:17:38;;;;;;;;;;;;;;;25.50;45.24;98244.63;2080054;28;19971;-50
2022/06/10 00:18:40;;;;;;;;;;;;;;;25.51;45.99;98248.97;2080198;28;19963;-49
2022/06/10 00:19:40;;;;;;;;;;;;;;;25.52;45.53;98249.78;2080399;28;20052;-52
2022/06/10 00:20:42;;;;;;;;;;;;;;;25.52;45.40;98247.06;2080413;28;19936;-49
2022/06/10 00:21:43;;;;;;;;;;;;;;;25.48;45.59;98245.97;2082193;28;19929;-48
2022/06/10 00:22:45;;;;;;;;;;;;;;;25.48;45.55;98254.91;2078315;28;19971;-51
2022/06/10 00:23:46;;;;;;;;;;;;;;;25.47;45.07;98250.56;2081123;28;19928;-48
2022/06/10 00:24:47;;;;;;;;;;;;;;;25.48;45.66;98245.97;2084168;28;19944;-52
2022/06/10 00:25:49;;;;;;;;;;;;;;;25.47;44.92;98256.00;2078515;28;20287;-48
2022/06/10 00:26:49;;;;;;;;;;;;;;;25.47;45.12;98249.75;2078814;28;19940;-49
2022/06/10 00:27:51;;;;;;;;;;;;;;;25.46;44.77;98250.81;2080368;28;20019;-49
2022/06/10 00:28:52;;;;;;;;;;;;;;;25.48;44.87;98243.25;2077801;28;19932;-48
2022/06/10 00:29:53;;;;;;;;;;;;;;;25.48;45.31;98248.66;2080259;28;20051;-49
2022/06/10 00:30:56;;;;;;;;;;;;;;;25.48;44.81;98248.66;2077086;28;19935;-48
2022/06/10 00:31:58;;;;;;;;;;;;;;;25.49;45.18;98250.28;2083150;28;19968;-49
2022/06/10 00:32:59;;;;;;;;;;;;;;;25.48;44.91;98244.06;2081761;28;19929;-52
2022/06/10 00:34:00;;;;;;;;;;;;;;;25.47;45.22;98247.84;2077130;28;20018;-50
2022/06/10 00:35:01;;;;;;;;;;;;;;;25.47;44.54;98245.13;2082431;28;19964;-50
2022/06/10 00:36:03;;;;;;;;;;;;;;;25.46;44.95;98242.66;2082191;28;21209;-52
2022/06/10 00:37:04;;;;;;;;;;;;;;;25.47;45.20;98250.56;2079688;28;19924;-50
2022/06/10 00:38:07;;;;;;;;;;;;;;;25.48;45.19;98246.75;2079094;28;19932;-49
2022/06/10 00:39:08;;;;;;;;;;;;;;;25.47;44.49;98250.56;2078335;28;19933;-53
2022/06/10 00:40:11;;;;;;;;;;;;;;;25.47;45.02;98249.75;2082574;28;20455;-49
2022/06/10 00:41:12;;;;;;;;;;;;;;;25.48;45.36;98252.19;2080056;28;19939;-50
2022/06/10 00:42:14;;;;;;;;;;;;;;;25.49;45.50;98258.44;2082128;28;19982;-49
2022/06/10 00:43:15;;;;;;;;;;;;;;;25.48;45.55;98245.97;2080423;28;19936;-48
2022/06/10 00:44:30;;;;;;;;;;;;;;;25.47;44.99;98250.56;2078048;28;19932;-50
2022/06/10 00:46:02;;;;;;;;;;;;;;;25.47;45.14;98247.84;2084920;28;20383;-49
2022/06/10 00:47:05;;;;;;;;;;;;;;;25.47;45.62;98247.84;2081719;28;19929;-50
2022/06/10 00:48:08;;;;;;;;;;;;;;;25.46;45.18;98248.09;2083341;28;20455;-50
2022/06/10 00:49:14;;;;;;;;;;;;;;;25.46;45.10;98248.09;2083322;28;20406;-51
2022/06/10 00:50:18;;;;;;;;;;;;;;;25.45;44.73;98250.00;2081259;28;19971;-49
2022/06/10 00:51:25;;;;;;;;;;;;;;;25.45;45.31;98246.47;2081807;28;19929;-52
2022/06/10 00:52:29;;;;;;;;;;;;;;;25.45;45.35;98243.75;2078790;28;19925;-48
2022/06/10 00:53:32;;;;;;;;;;;;;;;25.44;45.24;98240.22;2080645;28;19944;-48
2022/06/10 00:54:36;;;;;;;;;;;;;;;25.42;45.45;98240.47;2079110;28;19928;-52
2022/06/10 00:55:37;;;;;;;;;;;;;;;25.43;45.62;98244.00;2083080;28;19933;-49
2022/06/10 00:56:41;;;;;;;;;;;;;;;25.42;45.08;98242.38;2081354;28;19933;-51
2022/06/10 00:57:44;;;;;;;;;;;;;;;25.40;44.57;98241.81;2078915;28;20414;-51
2022/06/10 00:58:49;;;;;;;;;;;;;;;25.39;45.32;98237.47;2080010;28;19947;-51
2022/06/10 00:59:51;;;;;;;;;;;;;;;25.40;45.07;98244.53;2080878;28;19940;-50
2022/06/10 01:00:52;;;;;;;;;;;;;;;25.39;45.42;98246.41;2079733;28;19940;-51
2022/06/10 01:01:55;;;;;;;;;;;;;;;25.39;44.94;98237.47;2080394;28;20294;-51
2022/06/10 01:02:58;;;;;;;;;;;;;;;25.38;44.96;98241.22;2082537;28;19940;-52
2022/06/10 01:04:00;;;;;;;;;;;;;;;25.39;44.57;98237.47;2082032;28;19935;-53
2022/06/10 01:05:04;;;;;;;;;;;;;;;25.41;44.40;98232.59;2081305;28;19937;-50
2022/06/10 01:06:04;;;;;;;;;;;;;;;25.40;44.77;98239.91;2080070;28;21016;-52
2022/06/10 01:07:06;;;;;;;;;;;;;;;25.40;45.03;98241.81;2078564;28;19933;-48
2022/06/10 01:08:08;;;;;;;;;;;;;;;25.40;44.73;98234.47;2083299;28;19932;-53
2022/06/10 01:09:10;;;;;;;;;;;;;;;25.41;45.08;98240.75;2081764;28;19999;-52
2022/06/10 01:10:12;;;;;;;;;;;;;;;25.42;45.03;98236.94;2081603;28;19986;-52
2022/06/10 01:11:22;;;;;;;;;;;;;;;25.41;44.43;98235.31;2077108;28;20043;-49
2022/06/10 01:12:40;;;;;;;;;;;;;;;25.42;44.91;98240.47;2080702;28;20965;-52
2022/06/10 01:13:49;;;;;;;;;;;;;;;25.43;44.68;98233.16;2071096;28;19943;-49
2022/06/10 01:15:00;;;;;;;;;;;;;;;25.42;44.82;98236.94;2083611;28;20412;-53
2022/06/10 01:16:06;;;;;;;;;;;;;;;25.41;45.14;98238.03;2080628;28;19933;-49
2022/06/10 01:17:12;;;;;;;;;;;;;;;25.41;45.01;98240.75;2083168;28;19929;-50
2022/06/10 01:18:21;;;;;;;;;;;;;;;25.40;45.47;98241.81;2083745;28;19991;-49
2022/06/10 01:19:34;;;;;;;;;;;;;;;25.40;45.09;98241.81;2081666;28;19929;-48
2022/06/10 01:20:43;;;;;;;;;;;;;;;25.40;44.91;98239.91;2083737;28;19936;-48
2022/06/10 01:22:04;;;;;;;;;;;;;;;25.41;45.11;98240.75;2082232;28;19963;-52
2022/06/10 01:23:30;;;;;;;;;;;;;;;25.41;45.31;98235.31;2079341;28;19960;-49
2022/06/10 01:24:49;;;;;;;;;;;;;;;25.42;45.15;98236.94;2080998;28;19938;-51
2022/06/10 01:26:04;;;;;;;;;;;;;;;25.42;45.31;98242.38;2083653;28;19936;-51
2022/06/10 01:28:40;;;;;;;;;;;;;;;25.40;45.55;98249.94;2079865;28;20397;-50
2022/06/10 01:29:51;;;;;;;;;;;;;;;25.41;45.66;98248.91;2082069;28;19929;-49
2022/06/10 01:31:11;;;;;;;;;;;;;;;25.40;45.04;98249.94;2082682;28;20015;-49
2022/06/10 01:32:18;;;;;;;;;;;;;;;25.38;45.47;98246.66;2083557;28;19940;-50
2022/06/10 01:33:23;;;;;;;;;;;;;;;25.38;45.78;98252.94;2079166;28;19987;-49
2022/06/10 01:34:28;;;;;;;;;;;;;;;25.39;45.76;98253.75;2080758;28;20563;-49
2022/06/10 01:35:34;;;;;;;;;;;;;;;25.37;46.18;98256.72;2082351;28;19929;-51
2022/06/10 01:36:41;;;;;;;;;;;;;;;25.37;45.83;98261.31;2082424;28;19978;-50
2022/06/10 01:37:43;;;;;;;;;;;;;;;25.37;46.34;98266.75;2083538;28;20605;-51
2022/06/10 01:38:47;;;;;;;;;;;;;;;25.37;46.10;98262.13;2083794;28;19929;-48
2022/06/10 01:39:54;;;;;;;;;;;;;;;25.38;46.08;98262.94;2082670;28;20661;-48
2022/06/10 01:41:02;;;;;;;;;;;;;;;25.37;46.22;98262.13;2081273;28;19936;-49
2022/06/10 01:42:08;;;;;;;;;;;;;;;25.37;45.94;98261.31;2081107;28;20466;-50
2022/06/10 01:43:16;;;;;;;;;;;;;;;25.36;46.31;98259.69;2080839;28;19943;-51
2022/06/10 01:44:20;;;;;;;;;;;;;;;25.37;46.07;98255.91;2083272;28;19928;-50
2022/06/10 01:45:26;;;;;;;;;;;;;;;25.37;46.42;98264.03;2076985;28;20056;-50
2022/06/10 01:46:29;;;;;;;;;;;;;;;25.38;46.24;98262.94;2080674;28;19928;-49
2022/06/10 01:47:37;;;;;;;;;;;;;;;25.39;46.07;98264.63;2083513;28;19929;-48
2022/06/10 01:48:40;;;;;;;;;;;;;;;25.37;46.39;98261.31;2079720;28;19932;-50
2022/06/10 01:49:45;;;;;;;;;;;;;;;25.39;46.33;98261.91;2079972;28;19929;-48
2022/06/10 01:50:49;;;;;;;;;;;;;;;25.37;46.21;98258.59;2078551;28;19948;-49
2022/06/10 01:51:57;;;;;;;;;;;;;;;25.37;46.46;98258.59;2079537;28;19928;-51
2022/06/10 01:53:02;;;;;;;;;;;;;;;25.36;46.31;98265.94;2082004;28;20584;-50
2022/06/10 01:54:08;;;;;;;;;;;;;;;25.36;46.23;98267.84;2078924;28;20367;-50
2022/06/10 01:55:12;;;;;;;;;;;;;;;25.37;46.48;98266.75;2077565;28;19935;-49
2022/06/10 01:56:18;;;;;;;;;;;;;;;25.36;46.28;98270.56;2082785;28;20374;-53
2022/06/10 01:57:22;;;;;;;;;;;;;;;25.36;46.56;98263.22;2078308;28;19933;-51
2022/06/10 01:58:27;;;;;;;;;;;;;;;25.37;46.56;98269.47;2078948;28;19928;-49
2022/06/10 01:59:30;;;;;;;;;;;;;;;25.37;46.61;98266.75;2081290;28;19939;-50
2022/06/10 02:00:33;;;;;;;;;;;;;;;25.37;46.50;98270.28;2076751;28;19928;-48
2022/06/10 02:01:36;;;;;;;;;;;;;;;25.38;46.60;98273.81;2079395;28;20697;-51
2022/06/10 02:02:42;;;;;;;;;;;;;;;25.36;46.34;98270.56;2077505;28;19933;-51
2022/06/10 02:03:46;;;;;;;;;;;;;;;25.38;46.33;98274.66;2080612;28;20354;-49
2022/06/10 02:04:50;;;;;;;;;;;;;;;25.38;46.41;98273.81;2079522;28;19929;-52
2022/06/10 02:05:53;;;;;;;;;;;;;;;25.37;46.70;98272.19;2084206;28;20306;-50
2022/06/10 02:06:58;;;;;;;;;;;;;;;25.37;46.71;98273.00;2084973;28;20286;-51
2022/06/10 02:08:06;;;;;;;;;;;;;;;25.35;46.45;98269.75;2083776;28;20310;-50
2022/06/10 02:09:09;;;;;;;;;;;;;;;25.37;46.60;98274.91;2080808;28;19983;-49
2022/06/10 02:10:13;;;;;;;;;;;;;;;25.38;46.66;98279.25;2082693;28;20398;-51
2022/06/10 02:11:16;;;;;;;;;;;;;;;25.36;46.81;98276.00;2078472;28;19933;-49
2022/06/10 02:12:19;;;;;;;;;;;;;;;25.35;46.80;98275.16;2081687;28;20333;-49
2022/06/10 02:13:23;;;;;;;;;;;;;;;25.36;46.80;98281.41;2083039;28;19932;-51
2022/06/10 02:14:26;;;;;;;;;;;;;;;25.34;46.88;98278.13;2081004;28;19929;-53
2022/06/10 02:15:31;;;;;;;;;;;;;;;25.33;46.79;98273.78;2081481;28;20031;-50
2022/06/10 02:16:34;;;;;;;;;;;;;;;25.34;46.92;98275.41;2081655;28;19931;-50
2022/06/10 02:17:37;;;;;;;;;;;;;;;25.32;46.82;98275.66;2078173;28;19975;-52
2022/06/10 02:18:41;;;;;;;;;;;;;;;25.34;46.59;98283.56;2076099;28;19932;-49
2022/06/10 02:19:44;;;;;;;;;;;;;;;25.32;46.78;98275.66;2079663;28;20011;-50
2022/06/10 02:20:48;;;;;;;;;;;;;;;25.34;46.92;98278.94;2081614;28;19936;-53
2022/06/10 02:21:51;;;;;;;;;;;;;;;25.31;46.74;98273.22;2084009;28;19932;-49
2022/06/10 02:22:54;;;;;;;;;;;;;;;25.32;46.82;98275.66;2080055;28;19925;-53
2022/06/10 02:23:58;;;;;;;;;;;;;;;25.31;46.94;98278.66;2080869;28;19928;-49
2022/06/10 02:25:01;;;;;;;;;;;;;;;25.32;46.96;98280.28;2078794;28;19925;-49
2022/06/10 02:26:04;;;;;;;;;;;;;;;25.31;46.63;98286.78;2078099;28;19936;-50
2022/06/10 02:27:07;;;;;;;;;;;;;;;25.30;46.76;98283.25;2089139;22;20328;-50
2022/06/10 02:28:10;;;;;;;;;;;;;;;25.31;47.06;98289.50;2073947;28;19929;-49
2022/06/10 02:29:12;;;;;;;;;;;;;;;25.30;46.78;98280.53;2069049;28;20658;-49
2022/06/10 02:30:18;;;;;;;;;;;;;;;25.30;46.75;98277.03;2070491;28;20032;-50
2022/06/10 02:31:23;;;;;;;;;;;;;;;25.30;46.91;98287.88;2071207;28;19941;-51
2022/06/10 02:32:23;;;;;;;;;;;;;;;25.29;47.00;98287.03;2061636;28;19929;-50
2022/06/10 02:33:25;;;;;;;;;;;;;;;25.32;46.81;98283.00;2061723;28;19973;-48
2022/06/10 02:34:28;;;;;;;;;;;;;;;25.32;46.87;98291.13;2058846;28;20401;-49
2022/06/10 02:35:35;;;;;;;;;;;;;;;25.33;46.94;98287.38;2062744;28;19968;-49
2022/06/10 02:36:38;;;;;;;;;;;;;;;25.32;46.95;98289.22;2061183;28;20037;-52
2022/06/10 02:37:44;;;;;;;;;;;;;;;25.34;46.86;98287.09;2064801;28;19941;-51
2022/06/10 02:38:51;;;;;;;;;;;;;;;25.34;46.99;98283.56;2057315;28;19930;-51
2022/06/10 02:39:57;;;;;;;;;;;;;;;25.33;47.02;98287.38;2063752;28;19929;-53
2022/06/10 02:41:00;;;;;;;;;;;;;;;25.32;46.79;98285.69;2066346;28;19941;-52
2022/06/10 02:42:08;;;;;;;;;;;;;;;25.31;47.13;98284.06;2062767;28;19929;-47
2022/06/10 02:43:11;;;;;;;;;;;;;;;25.30;47.09;98285.16;2063707;28;19934;-48
2022/06/10 02:44:18;;;;;;;;;;;;;;;25.29;47.05;98286.22;2064319;28;19937;-52
2022/06/10 02:45:22;;;;;;;;;;;;;;;25.29;47.15;98283.50;2062135;28;19930;-50
2022/06/10 02:46:28;;;;;;;;;;;;;;;25.29;47.06;98288.94;2065992;28;19929;-50
2022/06/10 02:47:34;;;;;;;;;;;;;;;25.31;47.09;98281.34;2063259;28;20794;-54
2022/06/10 02:48:39;;;;;;;;;;;;;;;25.31;47.03;98281.34;2064367;28;19930;-47
2022/06/10 02:49:42;;;;;;;;;;;;;;;25.30;46.58;98274.31;2064617;28;19933;-50
2022/06/10 02:50:43;;;;;;;;;;;;;;;25.31;46.71;98273.22;2064964;28;19930;-50
2022/06/10 02:51:46;;;;;;;;;;;;;;;25.29;46.15;98278.88;2064787;28;19932;-47
2022/06/10 02:52:47;;;;;;;;;;;;;;;25.31;46.60;98281.34;2064549;28;19929;-48
2022/06/10 02:53:49;;;;;;;;;;;;;;;25.30;46.40;98277.84;2065892;28;20017;-50
2022/06/10 02:54:50;;;;;;;;;;;;;;;25.29;46.77;98278.06;2060387;28;19933;-53
2022/06/10 02:55:51;;;;;;;;;;;;;;;25.29;46.52;98284.31;2061748;28;19956;-51
2022/06/10 02:56:52;;;;;;;;;;;;;;;25.29;46.51;98287.03;2060308;28;19941;-49
2022/06/10 03:02:07;;;;;;;;;;;;;;;25.29;46.50;98278.88;2065010;28;19929;-51
2022/06/10 03:03:11;;;;;;;;;;;;;;;25.27;46.41;98282.94;2065379;28;19929;-52
2022/06/10 03:04:17;;;;;;;;;;;;;;;25.28;46.61;98282.69;2063572;28;19934;-51
2022/06/10 03:05:26;;;;;;;;;;;;;;;25.28;46.74;98287.31;2062577;28;19930;-54
2022/06/10 03:06:32;;;;;;;;;;;;;;;25.29;46.29;98276.16;2064783;28;19930;-50
2022/06/10 03:07:44;;;;;;;;;;;;;;;25.29;46.42;98286.22;2063619;28;20035;-57
2022/06/10 03:08:46;;;;;;;;;;;;;;;25.27;46.46;98283.78;2053477;28;19929;-51
2022/06/10 03:09:58;;;;;;;;;;;;;;;25.27;46.71;98291.06;2062137;28;19972;-51
2022/06/10 03:11:05;;;;;;;;;;;;;;;25.27;46.58;98288.34;2065035;28;19929;-49
2022/06/10 03:12:13;;;;;;;;;;;;;;;25.27;46.69;98288.34;2064903;28;20508;-50
2022/06/10 03:13:20;;;;;;;;;;;;;;;25.27;46.53;98293.78;2062709;28;20427;-52
2022/06/10 03:14:26;;;;;;;;;;;;;;;25.28;46.62;98287.31;2064337;28;19945;-52
2022/06/10 03:15:36;;;;;;;;;;;;;;;25.26;46.61;98289.44;2062438;28;19940;-47
2022/06/10 03:16:45;;;;;;;;;;;;;;;25.24;46.62;98291.59;2063365;28;20378;-49
2022/06/10 03:17:52;;;;;;;;;;;;;;;25.25;46.65;98293.25;2062006;28;19936;-49
2022/06/10 03:19:00;;;;;;;;;;;;;;;25.24;47.15;98297.00;2063990;28;20049;-52
2022/06/10 03:20:05;;;;;;;;;;;;;;;25.26;46.93;98294.88;2064093;28;19971;-51
2022/06/10 03:21:12;;;;;;;;;;;;;;;25.25;46.48;98301.38;2061815;28;19934;-49
2022/06/10 03:22:18;;;;;;;;;;;;;;;25.24;46.20;98299.72;2064317;28;19937;-47
2022/06/10 03:23:22;;;;;;;;;;;;;;;25.25;46.77;98299.50;2065737;28;19937;-51
2022/06/10 03:24:27;;;;;;;;;;;;;;;25.25;46.61;98301.38;2064319;28;19977;-51
2022/06/10 03:25:30;;;;;;;;;;;;;;;25.25;46.22;98301.38;2061656;28;20843;-49
2022/06/10 03:26:40;;;;;;;;;;;;;;;25.24;46.62;98303.28;2063314;28;20142;-53
2022/06/10 03:27:44;;;;;;;;;;;;;;;25.25;46.20;98301.38;2062474;28;20630;-51
2022/06/10 03:28:50;;;;;;;;;;;;;;;25.27;46.08;98299.22;2063868;28;19968;-52
2022/06/10 03:29:54;;;;;;;;;;;;;;;25.24;46.42;98302.44;2063895;28;20294;-51
2022/06/10 03:30:57;;;;;;;;;;;;;;;25.25;46.41;98304.91;2063503;28;20019;-50
2022/06/10 03:32:00;;;;;;;;;;;;;;;25.24;46.54;98307.88;2063801;28;19956;-49
2022/06/10 03:33:08;;;;;;;;;;;;;;;25.23;46.45;98315.19;2063075;28;19984;-48
2022/06/10 03:34:14;;;;;;;;;;;;;;;25.23;46.11;98312.50;2064176;28;19932;-51
2022/06/10 03:35:18;;;;;;;;;;;;;;;25.23;46.44;98314.38;2061109;28;19926;-53
2022/06/10 03:36:23;;;;;;;;;;;;;;;25.23;46.18;98319.81;2063593;28;20052;-51
2022/06/10 03:37:24;;;;;;;;;;;;;;;25.23;46.40;98319.81;2065194;28;19929;-48
2022/06/10 03:38:26;;;;;;;;;;;;;;;25.23;46.63;98314.38;2063879;28;19934;-49
2022/06/10 03:39:27;;;;;;;;;;;;;;;25.22;46.41;98319.00;2058444;28;20394;-52
2022/06/10 03:40:29;;;;;;;;;;;;;;;25.24;46.31;98321.44;2062536;28;20057;-50
2022/06/10 03:41:31;;;;;;;;;;;;;;;25.21;46.75;98320.06;2061665;28;20893;-52
2022/06/10 03:42:33;;;;;;;;;;;;;;;25.22;46.71;98323.63;2062931;28;19979;-54
2022/06/10 03:43:35;;;;;;;;;;;;;;;25.21;46.73;98324.66;2063294;28;19926;-53
2022/06/10 03:44:37;;;;;;;;;;;;;;;25.21;46.75;98335.53;2062842;28;19930;-50
2022/06/10 03:45:39;;;;;;;;;;;;;;;25.19;46.88;98333.91;2067240;28;19929;-51
2022/06/10 03:46:42;;;;;;;;;;;;;;;25.21;46.64;98328.19;2062842;28;19936;-52
2022/06/10 03:47:43;;;;;;;;;;;;;;;25.20;46.55;98332.00;2065290;28;20298;-50
2022/06/10 03:48:45;;;;;;;;;;;;;;;25.19;46.92;98335.81;2058642;28;20032;-49
2022/06/10 03:49:48;;;;;;;;;;;;;;;25.18;46.91;98328.72;2062443;28;19936;-50
2022/06/10 03:50:50;;;;;;;;;;;;;;;25.18;46.66;98334.97;2062414;28;19926;-48
2022/06/10 03:51:52;;;;;;;;;;;;;;;25.18;46.64;98337.69;2064361;28;20454;-49
2022/06/10 03:52:54;;;;;;;;;;;;;;;25.17;46.51;98327.91;2059504;28;25551;-51
2022/06/10 03:53:54;;;;;;;;;;;;;;;25.18;46.77;98334.97;2064565;28;19929;-47
2022/06/10 03:54:56;;;;;;;;;;;;;;;25.19;46.72;98336.63;2064021;28;20827;-48
2022/06/10 03:55:56;;;;;;;;;;;;;;;25.20;46.83;98340.13;2059287;28;19930;-50
2022/06/10 03:56:58;;;;;;;;;;;;;;;25.18;47.02;98343.13;2065523;28;19975;-48
2022/06/10 03:57:59;;;;;;;;;;;;;;;25.17;46.75;98344.19;2059475;28;19929;-50
2022/06/10 03:59:00;;;;;;;;;;;;;;;25.19;46.94;98344.75;2064641;28;20894;-51
2022/06/10 04:00:01;;;;;;;;;;;;;;;25.18;46.82;98340.41;2060796;28;20354;-47
2022/06/10 04:01:03;;;;;;;;;;;;;;;25.18;46.71;98340.41;2058392;28;19933;-48
2022/06/10 04:02:04;;;;;;;;;;;;;;;25.18;46.67;98345.84;2063129;28;19933;-49
2022/06/10 04:03:05;;;;;;;;;;;;;;;25.18;46.72;98345.84;2060217;28;19935;-53
2022/06/10 04:04:06;;;;;;;;;;;;;;;25.17;46.98;98344.19;2063584;28;19933;-51
2022/06/10 04:05:08;;;;;;;;;;;;;;;25.17;46.69;98344.19;2064295;28;19926;-49
2022/06/10 04:06:09;;;;;;;;;;;;;;;25.17;46.98;98348.78;2065504;28;20277;-47
2022/06/10 04:07:13;;;;;;;;;;;;;;;25.17;47.11;98349.59;2062666;28;19996;-52
2022/06/10 04:08:14;;;;;;;;;;;;;;;25.18;46.75;98350.41;2067540;28;19933;-50
2022/06/10 04:09:15;;;;;;;;;;;;;;;25.17;46.65;98344.19;2062323;28;20788;-50
2022/06/10 04:10:18;;;;;;;;;;;;;;;25.18;46.57;98351.28;2061686;28;19930;-47
2022/06/10 04:11:20;;;;;;;;;;;;;;;25.17;46.79;98352.31;2064817;28;20000;-49
2022/06/10 04:12:21;;;;;;;;;;;;;;;25.17;46.77;98349.59;2059701;28;19937;-49
2022/06/10 04:13:23;;;;;;;;;;;;;;;25.17;46.88;98356.94;2060959;28;20395;-47
2022/06/10 04:14:24;;;;;;;;;;;;;;;25.15;46.75;98354.47;2064283;28;19937;-47
2022/06/10 04:15:27;;;;;;;;;;;;;;;25.17;46.42;98356.94;2063728;28;20186;-48
2022/06/10 04:16:28;;;;;;;;;;;;;;;25.15;46.67;98359.88;2065184;28;19930;-49
2022/06/10 04:17:30;;;;;;;;;;;;;;;25.15;46.78;98359.06;2060113;28;19933;-49
2022/06/10 04:18:31;;;;;;;;;;;;;;;25.15;46.81;98362.59;2065422;28;19956;-48
2022/06/10 04:19:32;;;;;;;;;;;;;;;25.15;46.30;98368.03;2062556;28;20880;-48
2022/06/10 04:20:34;;;;;;;;;;;;;;;25.15;46.23;98362.59;2063816;28;19929;-50
2022/06/10 04:21:36;;;;;;;;;;;;;;;25.15;46.06;98368.03;2063463;28;19972;-47
2022/06/10 04:22:38;;;;;;;;;;;;;;;25.16;46.21;98366.97;2061955;28;19930;-49
2022/06/10 04:23:39;;;;;;;;;;;;;;;25.14;46.33;98366.41;2061761;28;19949;-48
2022/06/10 04:24:41;;;;;;;;;;;;;;;25.14;46.60;98366.41;2062422;28;19936;-47
2022/06/10 04:25:44;;;;;;;;;;;;;;;25.14;45.79;98366.41;2067120;28;19933;-50
2022/06/10 04:26:45;;;;;;;;;;;;;;;25.15;46.37;98365.31;2061379;28;20025;-50
2022/06/10 04:27:46;;;;;;;;;;;;;;;25.13;46.09;98364.75;2064182;28;19945;-47
2022/06/10 04:28:47;;;;;;;;;;;;;;;25.12;46.01;98368.50;2065270;28;20461;-48
2022/06/10 04:29:48;;;;;;;;;;;;;;;25.13;46.15;98367.47;2063571;28;19929;-48
2022/06/10 04:30:51;;;;;;;;;;;;;;;25.13;46.01;98366.59;2063819;28;19933;-47
2022/06/10 04:31:51;;;;;;;;;;;;;;;25.11;46.05;98372.31;2064488;28;20056;-47
2022/06/10 04:32:54;;;;;;;;;;;;;;;25.11;46.06;98377.72;2065587;28;19933;-49
2022/06/10 04:33:55;;;;;;;;;;;;;;;25.11;46.28;98377.72;2064472;28;19933;-48
2022/06/10 04:34:56;;;;;;;;;;;;;;;25.11;45.79;98377.72;2059643;28;19930;-48
2022/06/10 04:35:57;;;;;;;;;;;;;;;25.10;45.86;98386.97;2061918;28;19925;-49
2022/06/10 04:36:58;;;;;;;;;;;;;;;25.08;46.13;98383.66;2065642;28;20017;-48
2022/06/10 04:38:00;;;;;;;;;;;;;;;25.09;45.51;98387.19;2062831;28;19930;-48
2022/06/10 04:39:02;;;;;;;;;;;;;;;25.08;45.62;98383.66;2058365;28;19957;-47
2022/06/10 04:40:03;;;;;;;;;;;;;;;25.10;46.15;98386.13;2063279;28;20387;-47
2022/06/10 04:41:06;;;;;;;;;;;;;;;25.07;45.75;98387.44;2061125;28;19927;-47
2022/06/10 04:42:07;;;;;;;;;;;;;;;25.07;45.52;98387.44;2064730;28;19996;-52
2022/06/10 04:43:09;;;;;;;;;;;;;;;25.06;45.31;98385.81;2062064;28;20292;-49
2022/06/10 04:44:10;;;;;;;;;;;;;;;25.07;45.50;98384.72;2062863;28;19933;-49
2022/06/10 04:45:12;;;;;;;;;;;;;;;25.09;45.49;98392.63;2062729;28;20009;-48
2022/06/10 04:46:16;;;;;;;;;;;;;;;25.07;45.74;98381.19;2062899;28;19925;-50
2022/06/10 04:47:17;;;;;;;;;;;;;;;25.06;45.75;98383.09;2063281;28;20842;-49
2022/06/10 04:48:18;;;;;;;;;;;;;;;25.07;45.15;98387.44;2063371;28;19930;-48
2022/06/10 04:49:20;;;;;;;;;;;;;;;25.08;45.22;98401.84;2063889;28;20299;-48
2022/06/10 04:50:21;;;;;;;;;;;;;;;25.09;45.82;98393.44;2064585;28;19929;-49
2022/06/10 04:51:23;;;;;;;;;;;;;;;25.08;45.70;98397.25;2066091;28;20473;-48
2022/06/10 04:52:24;;;;;;;;;;;;;;;25.09;45.42;98395.34;2061751;28;20954;-52
2022/06/10 04:53:27;;;;;;;;;;;;;;;25.08;46.04;98393.72;2060657;28;19931;-51
2022/06/10 04:54:28;;;;;;;;;;;;;;;25.08;45.96;98399.13;2059134;28;20434;-47
2022/06/10 04:55:29;;;;;;;;;;;;;;;25.09;46.00;98403.47;2061767;28;19933;-47
2022/06/10 04:56:30;;;;;;;;;;;;;;;25.08;45.93;98396.41;2061843;28;19933;-51
2022/06/10 04:57:32;;;;;;;;;;;;;;;25.07;45.73;98392.03;2060755;28;19935;-48
2022/06/10 04:58:34;;;;;;;;;;;;;;;25.07;46.05;98392.88;2083367;22;19996;-48
2022/06/10 04:59:35;;;;;;;;;;;;;;;25.05;45.77;98389.59;2078082;28;20462;-48
2022/06/10 05:00:39;;;;;;;;;;;;;;;25.07;45.74;98392.88;2079680;28;19932;-48
2022/06/10 05:01:40;;;;;;;;;;;;;;;25.06;45.11;98393.13;2075167;28;19963;-49
2022/06/10 05:02:41;;;;;;;;;;;;;;;25.03;45.38;98389.03;2086424;28;20477;-48
2022/06/10 05:03:42;;;;;;;;;;;;;;;25.04;44.83;98387.13;2087265;28;19943;-47
2022/06/10 05:04:44;;;;;;;;;;;;;;;25.03;45.35;98386.31;2081445;28;19932;-50
2022/06/10 05:05:44;;;;;;;;;;;;;;;25.02;45.08;98390.09;2086489;28;19928;-47
2022/06/10 05:06:46;;;;;;;;;;;;;;;25.02;45.29;98392.81;2085804;28;20003;-50
2022/06/10 05:07:46;;;;;;;;;;;;;;;25.03;45.56;98389.03;2082890;28;19937;-51
2022/06/10 05:08:50;;;;;;;;;;;;;;;25.05;45.96;98388.78;2087408;28;20592;-47
2022/06/10 05:09:51;;;;;;;;;;;;;;;25.04;45.79;98393.38;2083455;28;19937;-49
2022/06/10 05:10:53;;;;;;;;;;;;;;;25.03;46.03;98389.03;2082385;28;19928;-47
2022/06/10 05:11:53;;;;;;;;;;;;;;;25.05;45.73;98396.94;2088164;28;19932;-46
2022/06/10 05:12:55;;;;;;;;;;;;;;;25.06;45.39;98396.66;2082334;28;19928;-48
2022/06/10 05:13:56;;;;;;;;;;;;;;;25.04;45.81;98395.25;2088213;28;19940;-49
2022/06/10 05:14:58;;;;;;;;;;;;;;;25.04;45.30;98404.22;2090625;28;19928;-49
2022/06/10 05:15:59;;;;;;;;;;;;;;;25.04;46.16;98397.97;2090070;28;19929;-47
2022/06/10 05:17:00;;;;;;;;;;;;;;;25.05;45.84;98399.63;2090380;28;19925;-47
2022/06/10 05:18:02;;;;;;;;;;;;;;;25.03;45.50;98397.16;2084530;28;20016;-49
2022/06/10 05:19:02;;;;;;;;;;;;;;;25.04;45.63;98401.50;2086654;28;21012;-47
2022/06/10 05:20:04;;;;;;;;;;;;;;;25.04;45.41;98403.41;2087213;28;20446;-48
2022/06/10 05:21:06;;;;;;;;;;;;;;;25.02;45.27;98400.97;2086258;28;19928;-51
2022/06/10 05:22:06;;;;;;;;;;;;;;;25.02;45.49;98405.53;2082630;28;19932;-51
2022/06/10 05:23:09;;;;;;;;;;;;;;;24.98;45.83;98410.66;2086414;28;19929;-49
2022/06/10 05:24:15;;;;;;;;;;;;;;;25.00;45.73;98402.28;2079634;28;19934;-50
2022/06/10 05:25:17;;;;;;;;;;;;;;;24.98;45.54;98405.22;2089601;28;19933;-48
2022/06/10 05:26:17;;;;;;;;;;;;;;;24.97;45.77;98415.28;2090056;28;19936;-48
2022/06/10 05:27:19;;;;;;;;;;;;;;;24.97;44.97;98407.13;2086027;28;19924;-52
2022/06/10 05:28:20;;;;;;;;;;;;;;;24.98;45.42;98399.81;2086181;28;19939;-51
2022/06/10 05:29:22;;;;;;;;;;;;;;;24.98;45.31;98416.91;2085764;28;19940;-48
2022/06/10 05:30:24;;;;;;;;;;;;;;;24.98;45.60;98419.63;2087831;28;20032;-47
2022/06/10 05:31:25;;;;;;;;;;;;;;;24.98;45.66;98410.66;2091098;28;19985;-47
2022/06/10 05:32:26;;;;;;;;;;;;;;;24.99;45.22;98417.75;2086470;28;19932;-48
2022/06/10 05:34:44;;;;;;;;;;;;;;;24.98;45.74;98416.09;2089397;28;19924;-48
2022/06/10 05:34:48;;;;;;;;;;;;;;;24.97;45.72;98420.69;2087040;28;19932;-51
2022/06/10 05:35:50;;;;;;;;;;;;;;;24.96;45.33;98424.50;2090450;28;19985;-49
2022/06/10 05:36:51;;;;;;;;;;;;;;;24.96;45.33;98420.94;2085514;28;24237;-50